SJV528 WICA-WALL
Flight info
| Callsign | SJV528 |
|---|---|
| Flight time | N/A |
| Altitude | 35000 |
| Route | CA1N/14 CA T5 WAWAN T11 KAYAN |
| Aircraft | A320/M-SDE3FGHIRWY/LB1 |
Departure
| Time | N/A |
|---|---|
| Airport | Kertajati International Airport (WICA) |
Arrival
| Time | 2026-04-18 11:41 |
|---|---|
| Airport | Sultan Aji Muhammad Sulaiman Sepinggan International Airport (WALL) |
| Time | Latitude | Longitude | Altitude | Speed | Heading |
|---|---|---|---|---|---|
| 2026-04-18 10:37 | -6.04899 | 112.17526 | 34845 ft | 463 kts | 59° |
| 2026-04-18 10:38 | -6.03228 | 112.20293 | 34842 ft | 463 kts | 59° |
| 2026-04-18 10:38 | -5.99881 | 112.25818 | 34842 ft | 463 kts | 59° |
| 2026-04-18 10:39 | -5.96534 | 112.31352 | 34841 ft | 463 kts | 59° |
| 2026-04-18 10:39 | -5.93194 | 112.36891 | 34841 ft | 464 kts | 59° |
| 2026-04-18 10:40 | -5.89848 | 112.42435 | 34844 ft | 464 kts | 59° |
| 2026-04-18 10:40 | -5.86494 | 112.47976 | 34846 ft | 464 kts | 59° |
| 2026-04-18 10:41 | -5.83147 | 112.53508 | 34843 ft | 464 kts | 59° |
| 2026-04-18 10:41 | -5.79797 | 112.59047 | 34844 ft | 464 kts | 59° |
| 2026-04-18 10:42 | -5.76447 | 112.64592 | 34848 ft | 465 kts | 59° |
| 2026-04-18 10:42 | -5.73086 | 112.70136 | 34849 ft | 465 kts | 59° |
| 2026-04-18 10:43 | -5.69727 | 112.75673 | 34847 ft | 464 kts | 59° |
| 2026-04-18 10:43 | -5.66373 | 112.81214 | 34846 ft | 464 kts | 59° |
| 2026-04-18 10:44 | -5.63012 | 112.86747 | 34851 ft | 465 kts | 59° |
| 2026-04-18 10:44 | -5.59647 | 112.92293 | 34853 ft | 465 kts | 59° |
| 2026-04-18 10:45 | -5.56286 | 112.97839 | 34857 ft | 465 kts | 59° |
| 2026-04-18 10:45 | -5.52922 | 113.03385 | 34858 ft | 465 kts | 59° |
| 2026-04-18 10:46 | -5.49558 | 113.08928 | 34858 ft | 465 kts | 59° |
| 2026-04-18 10:46 | -5.46222 | 113.14430 | 34857 ft | 465 kts | 59° |
| 2026-04-18 10:47 | -5.42857 | 113.19974 | 34858 ft | 465 kts | 59° |
| 2026-04-18 10:47 | -5.39495 | 113.25519 | 34859 ft | 465 kts | 59° |
| 2026-04-18 10:48 | -5.36124 | 113.31066 | 34861 ft | 465 kts | 59° |
| 2026-04-18 10:48 | -5.32755 | 113.36604 | 34861 ft | 465 kts | 59° |
| 2026-04-18 10:49 | -5.29390 | 113.42151 | 34861 ft | 465 kts | 59° |
| 2026-04-18 10:49 | -5.26024 | 113.47695 | 34860 ft | 465 kts | 59° |
| 2026-04-18 10:50 | -5.22659 | 113.53228 | 34859 ft | 465 kts | 59° |
| 2026-04-18 10:50 | -5.19291 | 113.58768 | 34858 ft | 465 kts | 59° |
| 2026-04-18 10:51 | -5.15924 | 113.64307 | 34857 ft | 465 kts | 59° |
| 2026-04-18 10:51 | -5.12554 | 113.69842 | 34857 ft | 465 kts | 59° |
| 2026-04-18 10:52 | -5.09189 | 113.75379 | 34856 ft | 465 kts | 59° |
| 2026-04-18 10:52 | -5.05818 | 113.80915 | 34858 ft | 465 kts | 58° |
| 2026-04-18 10:53 | -5.02444 | 113.86447 | 34857 ft | 465 kts | 58° |
| 2026-04-18 10:53 | -4.99075 | 113.91986 | 34856 ft | 466 kts | 58° |
| 2026-04-18 10:54 | -4.95330 | 113.97262 | 34856 ft | 465 kts | 45° |
| 2026-04-18 10:54 | -4.90248 | 114.01237 | 34854 ft | 465 kts | 33° |
| 2026-04-18 10:55 | -4.84850 | 114.04796 | 34852 ft | 464 kts | 33° |
| 2026-04-18 10:55 | -4.79465 | 114.08376 | 34852 ft | 464 kts | 33° |
| 2026-04-18 10:56 | -4.74090 | 114.11954 | 34852 ft | 464 kts | 33° |
| 2026-04-18 10:56 | -4.68703 | 114.15528 | 34853 ft | 464 kts | 33° |
| 2026-04-18 10:57 | -4.63343 | 114.19066 | 34855 ft | 464 kts | 33° |
| 2026-04-18 10:57 | -4.57959 | 114.22636 | 34855 ft | 464 kts | 33° |
| 2026-04-18 10:58 | -4.52579 | 114.26211 | 34852 ft | 464 kts | 33° |
| 2026-04-18 10:58 | -4.47203 | 114.29779 | 34853 ft | 464 kts | 33° |
| 2026-04-18 10:59 | -4.41816 | 114.33346 | 34853 ft | 464 kts | 33° |
| 2026-04-18 10:59 | -4.36427 | 114.36902 | 34853 ft | 464 kts | 33° |
| 2026-04-18 11:00 | -4.31042 | 114.40467 | 34852 ft | 464 kts | 33° |
| 2026-04-18 11:00 | -4.25659 | 114.44031 | 34852 ft | 463 kts | 33° |
| 2026-04-18 11:01 | -4.20277 | 114.47590 | 34852 ft | 463 kts | 33° |
| 2026-04-18 11:01 | -4.14896 | 114.51146 | 34850 ft | 463 kts | 33° |
| 2026-04-18 11:02 | -4.06827 | 114.56472 | 34848 ft | 463 kts | 33° |
| 2026-04-18 11:02 | -4.01447 | 114.60030 | 34848 ft | 464 kts | 33° |
| 2026-04-18 11:03 | -3.96067 | 114.63592 | 34850 ft | 463 kts | 33° |
| 2026-04-18 11:03 | -3.90689 | 114.67152 | 34850 ft | 463 kts | 33° |
| 2026-04-18 11:04 | -3.85315 | 114.70708 | 34849 ft | 463 kts | 33° |
| 2026-04-18 11:04 | -3.79934 | 114.74258 | 34850 ft | 463 kts | 33° |
| 2026-04-18 11:05 | -3.74545 | 114.77804 | 34852 ft | 464 kts | 33° |
| 2026-04-18 11:05 | -3.69159 | 114.81358 | 34852 ft | 464 kts | 33° |
| 2026-04-18 11:06 | -3.63778 | 114.84911 | 34852 ft | 464 kts | 33° |
| 2026-04-18 11:06 | -3.58390 | 114.88471 | 34854 ft | 464 kts | 33° |
| 2026-04-18 11:07 | -3.53011 | 114.92031 | 34853 ft | 463 kts | 33° |
| 2026-04-18 11:07 | -3.47629 | 114.95588 | 34853 ft | 463 kts | 33° |
| 2026-04-18 11:08 | -3.42241 | 114.99138 | 34852 ft | 463 kts | 33° |
| 2026-04-18 11:08 | -3.36867 | 115.02679 | 34851 ft | 463 kts | 33° |
| 2026-04-18 11:09 | -3.31488 | 115.06224 | 34849 ft | 463 kts | 33° |
| 2026-04-18 11:09 | -3.26109 | 115.09779 | 34851 ft | 463 kts | 33° |
| 2026-04-18 11:10 | -3.20727 | 115.13336 | 34853 ft | 464 kts | 33° |
| 2026-04-18 11:10 | -3.15341 | 115.16885 | 34854 ft | 464 kts | 32° |
| 2026-04-18 11:11 | -3.09953 | 115.20434 | 34857 ft | 464 kts | 32° |
| 2026-04-18 11:11 | -3.04569 | 115.23981 | 34855 ft | 463 kts | 32° |
| 2026-04-18 11:12 | -3.00094 | 115.26931 | 34854 ft | 463 kts | 32° |
| 2026-04-18 11:12 | -2.94718 | 115.30484 | 34853 ft | 463 kts | 32° |
| 2026-04-18 11:13 | -2.88471 | 115.34586 | 34860 ft | 461 kts | 32° |
| 2026-04-18 11:13 | -2.83986 | 115.37542 | 34848 ft | 461 kts | 32° |
| 2026-04-18 11:14 | -2.78631 | 115.41082 | 34842 ft | 462 kts | 32° |
| 2026-04-18 11:14 | -2.73263 | 115.44614 | 34841 ft | 462 kts | 32° |
| 2026-04-18 11:15 | -2.67887 | 115.48142 | 34844 ft | 462 kts | 32° |
| 2026-04-18 11:15 | -2.62515 | 115.51683 | 34848 ft | 463 kts | 32° |
| 2026-04-18 11:16 | -2.57143 | 115.55231 | 34850 ft | 463 kts | 32° |
| 2026-04-18 11:16 | -2.51774 | 115.58764 | 34851 ft | 462 kts | 32° |
| 2026-04-18 11:17 | -2.46402 | 115.62298 | 34852 ft | 462 kts | 32° |
| 2026-04-18 11:17 | -2.41033 | 115.65831 | 34851 ft | 462 kts | 32° |
| 2026-04-18 11:18 | -2.35664 | 115.69367 | 34553 ft | 462 kts | 32° |
| 2026-04-18 11:18 | -2.32968 | 115.71144 | 33706 ft | 467 kts | 32° |
| 2026-04-18 11:18 | -2.30242 | 115.72941 | 32770 ft | 472 kts | 32° |
| 2026-04-18 11:19 | -2.27492 | 115.74754 | 31853 ft | 477 kts | 32° |
| 2026-04-18 11:19 | -2.24725 | 115.76592 | 31203 ft | 476 kts | 34° |
| 2026-04-18 11:19 | -2.22188 | 115.78696 | 30612 ft | 474 kts | 43° |
| 2026-04-18 11:19 | -2.19945 | 115.81098 | 30022 ft | 471 kts | 46° |
| 2026-04-18 11:20 | -2.17740 | 115.83505 | 29405 ft | 467 kts | 46° |
| 2026-04-18 11:20 | -2.15548 | 115.85890 | 28799 ft | 464 kts | 46° |
| 2026-04-18 11:20 | -2.13373 | 115.88253 | 28195 ft | 460 kts | 46° |
| 2026-04-18 11:20 | -2.11214 | 115.90593 | 27602 ft | 456 kts | 46° |
| 2026-04-18 11:21 | -2.09072 | 115.92907 | 27009 ft | 451 kts | 46° |
| 2026-04-18 11:21 | -2.06950 | 115.95206 | 26406 ft | 447 kts | 46° |
| 2026-04-18 11:21 | -2.04847 | 115.97482 | 25843 ft | 443 kts | 46° |
| 2026-04-18 11:21 | -2.02772 | 115.99732 | 25290 ft | 439 kts | 46° |
| 2026-04-18 11:22 | -2.00722 | 116.01960 | 24733 ft | 433 kts | 46° |
| 2026-04-18 11:22 | -1.98699 | 116.04166 | 24211 ft | 428 kts | 46° |
| 2026-04-18 11:22 | -1.96694 | 116.06349 | 23692 ft | 425 kts | 46° |
| 2026-04-18 11:22 | -1.94710 | 116.08504 | 23199 ft | 417 kts | 46° |
| 2026-04-18 11:23 | -1.92755 | 116.10621 | 22707 ft | 412 kts | 46° |
| 2026-04-18 11:23 | -1.90829 | 116.12709 | 22221 ft | 406 kts | 46° |
| 2026-04-18 11:23 | -1.88920 | 116.14781 | 21753 ft | 404 kts | 46° |
| 2026-04-18 11:23 | -1.87024 | 116.16838 | 21275 ft | 401 kts | 45° |
| 2026-04-18 11:24 | -1.85144 | 116.18877 | 20788 ft | 397 kts | 45° |
| 2026-04-18 11:24 | -1.83278 | 116.20906 | 20301 ft | 396 kts | 45° |
| 2026-04-18 11:24 | -1.81425 | 116.22919 | 19810 ft | 391 kts | 45° |
| 2026-04-18 11:24 | -1.79591 | 116.24912 | 19293 ft | 388 kts | 45° |
| 2026-04-18 11:25 | -1.77771 | 116.26891 | 18793 ft | 385 kts | 45° |
| 2026-04-18 11:25 | -1.75968 | 116.28853 | 18267 ft | 381 kts | 45° |
| 2026-04-18 11:25 | -1.74181 | 116.30796 | 17779 ft | 378 kts | 45° |
| 2026-04-18 11:25 | -1.72410 | 116.32722 | 17266 ft | 375 kts | 45° |
| 2026-04-18 11:26 | -1.70677 | 116.34605 | 16768 ft | 371 kts | 45° |
| 2026-04-18 11:26 | -1.68928 | 116.36514 | 16521 ft | 367 kts | 45° |
| 2026-04-18 11:26 | -1.67206 | 116.38401 | 16251 ft | 367 kts | 45° |
| 2026-04-18 11:26 | -1.65490 | 116.40286 | 15975 ft | 366 kts | 46° |
| 2026-04-18 11:27 | -1.63780 | 116.42165 | 15701 ft | 365 kts | 46° |
| 2026-04-18 11:27 | -1.62096 | 116.44012 | 15430 ft | 364 kts | 46° |
| 2026-04-18 11:27 | -1.60395 | 116.45875 | 15156 ft | 362 kts | 46° |
| 2026-04-18 11:27 | -1.58698 | 116.47732 | 14885 ft | 361 kts | 46° |
| 2026-04-18 11:28 | -1.57007 | 116.49584 | 14614 ft | 360 kts | 46° |
| 2026-04-18 11:28 | -1.55320 | 116.51428 | 14341 ft | 359 kts | 46° |
| 2026-04-18 11:28 | -1.53641 | 116.53268 | 14072 ft | 358 kts | 47° |
| 2026-04-18 11:28 | -1.52191 | 116.55284 | 13798 ft | 358 kts | 59° |
| 2026-04-18 11:29 | -1.51164 | 116.57561 | 13075 ft | 364 kts | 69° |
| 2026-04-18 11:29 | -1.50278 | 116.59936 | 12393 ft | 365 kts | 69° |
| 2026-04-18 11:29 | -1.49389 | 116.62321 | 11721 ft | 367 kts | 69° |
| 2026-04-18 11:29 | -1.48493 | 116.64715 | 11039 ft | 368 kts | 69° |
| 2026-04-18 11:30 | -1.47593 | 116.67095 | 10541 ft | 363 kts | 69° |
| 2026-04-18 11:30 | -1.46706 | 116.69427 | 10264 ft | 353 kts | 69° |
| 2026-04-18 11:30 | -1.45852 | 116.71674 | 10132 ft | 339 kts | 69° |
| 2026-04-18 11:30 | -1.45030 | 116.73840 | 10019 ft | 327 kts | 69° |
| 2026-04-18 11:31 | -1.44239 | 116.75933 | 9880 ft | 316 kts | 69° |
| 2026-04-18 11:31 | -1.43474 | 116.77957 | 9743 ft | 307 kts | 69° |
| 2026-04-18 11:31 | -1.42729 | 116.79929 | 9267 ft | 302 kts | 69° |
| 2026-04-18 11:31 | -1.41998 | 116.81882 | 8794 ft | 295 kts | 70° |
| 2026-04-18 11:32 | -1.41293 | 116.83802 | 8539 ft | 296 kts | 70° |
| 2026-04-18 11:32 | -1.40592 | 116.85724 | 8299 ft | 293 kts | 70° |
| 2026-04-18 11:32 | -1.39898 | 116.87630 | 8051 ft | 291 kts | 70° |
| 2026-04-18 11:32 | -1.39208 | 116.89524 | 7808 ft | 289 kts | 70° |
| 2026-04-18 11:33 | -1.38520 | 116.91411 | 7566 ft | 288 kts | 70° |
| 2026-04-18 11:33 | -1.37833 | 116.93288 | 7321 ft | 287 kts | 70° |
| 2026-04-18 11:33 | -1.37149 | 116.95149 | 7082 ft | 285 kts | 70° |
| 2026-04-18 11:33 | -1.36467 | 116.97006 | 6783 ft | 285 kts | 70° |
| 2026-04-18 11:34 | -1.35787 | 116.98863 | 6438 ft | 284 kts | 70° |
| 2026-04-18 11:34 | -1.35109 | 117.00715 | 6095 ft | 283 kts | 70° |
| 2026-04-18 11:34 | -1.34433 | 117.02561 | 5763 ft | 282 kts | 70° |
| 2026-04-18 11:34 | -1.33762 | 117.04400 | 5413 ft | 281 kts | 70° |
| 2026-04-18 11:35 | -1.33094 | 117.06231 | 5096 ft | 280 kts | 70° |
| 2026-04-18 11:35 | -1.32429 | 117.08055 | 4772 ft | 278 kts | 70° |
| 2026-04-18 11:35 | -1.31707 | 117.09838 | 4455 ft | 276 kts | 59° |
| 2026-04-18 11:35 | -1.30385 | 117.11198 | 4107 ft | 276 kts | 31° |
| 2026-04-18 11:36 | -1.28566 | 117.11742 | 3782 ft | 275 kts | 0° |
| 2026-04-18 11:36 | -1.26738 | 117.11349 | 3680 ft | 266 kts | 338° |
| 2026-04-18 11:36 | -1.25053 | 117.10646 | 3562 ft | 258 kts | 338° |
| 2026-04-18 11:36 | -1.23426 | 117.09956 | 3437 ft | 249 kts | 338° |
| 2026-04-18 11:37 | -1.21862 | 117.09291 | 3315 ft | 239 kts | 338° |
| 2026-04-18 11:37 | -1.20421 | 117.08578 | 3193 ft | 230 kts | 321° |
| 2026-04-18 11:37 | -1.19597 | 117.07263 | 3087 ft | 228 kts | 279° |
| 2026-04-18 11:37 | -1.19814 | 117.05735 | 2861 ft | 224 kts | 244° |
| 2026-04-18 11:38 | -1.20485 | 117.04351 | 2660 ft | 219 kts | 244° |
| 2026-04-18 11:38 | -1.21098 | 117.02966 | 2556 ft | 209 kts | 246° |
| 2026-04-18 11:38 | -1.21651 | 117.01667 | 2380 ft | 199 kts | 246° |
| 2026-04-18 11:38 | -1.22181 | 117.00416 | 2126 ft | 191 kts | 247° |
| 2026-04-18 11:39 | -1.22680 | 116.99237 | 1892 ft | 176 kts | 247° |
| 2026-04-18 11:39 | -1.23149 | 116.98130 | 1684 ft | 165 kts | 247° |
| 2026-04-18 11:39 | -1.23584 | 116.97102 | 1446 ft | 157 kts | 247° |
| 2026-04-18 11:39 | -1.24004 | 116.96111 | 1245 ft | 153 kts | 247° |
| 2026-04-18 11:40 | -1.24417 | 116.95137 | 1036 ft | 151 kts | 246° |
| 2026-04-18 11:40 | -1.24826 | 116.94171 | 837 ft | 151 kts | 247° |
| 2026-04-18 11:40 | -1.25228 | 116.93223 | 639 ft | 149 kts | 247° |
| 2026-04-18 11:40 | -1.25631 | 116.92272 | 441 ft | 149 kts | 247° |
| 2026-04-18 11:41 | -1.26035 | 116.91323 | 258 ft | 148 kts | 247° |
| 2026-04-18 11:41 | -1.26454 | 116.90381 | 60 ft | 148 kts | 247° |
| 2026-04-18 11:41 | -1.26797 | 116.89557 | 23 ft | 91 kts | 248° |
| 2026-04-18 11:41 | -1.26960 | 116.89146 | 19 ft | 48 kts | 248° |
| 2026-04-18 11:42 | -1.27025 | 116.88970 | 19 ft | 11 kts | 285° |
| 2026-04-18 11:42 | -1.26958 | 116.88928 | 20 ft | 12 kts | 335° |
| 2026-04-18 11:42 | -1.26885 | 116.88925 | 21 ft | 11 kts | 32° |
| 2026-04-18 11:42 | -1.26841 | 116.88999 | 21 ft | 14 kts | 67° |
| 2026-04-18 11:43 | -1.26802 | 116.89094 | 21 ft | 16 kts | 68° |
| 2026-04-18 11:43 | -1.26755 | 116.89204 | 21 ft | 18 kts | 67° |
| 2026-04-18 11:43 | -1.26702 | 116.89330 | 21 ft | 21 kts | 67° |
| 2026-04-18 11:43 | -1.26644 | 116.89472 | 21 ft | 23 kts | 67° |
| 2026-04-18 11:44 | -1.26577 | 116.89628 | 21 ft | 26 kts | 67° |
| 2026-04-18 11:44 | -1.26509 | 116.89789 | 21 ft | 26 kts | 67° |
| 2026-04-18 11:44 | -1.26446 | 116.89938 | 21 ft | 21 kts | 67° |
| 2026-04-18 11:44 | -1.26403 | 116.90039 | 21 ft | 10 kts | 66° |
| 2026-04-18 11:45 | -1.26341 | 116.90049 | 21 ft | 11 kts | 324° |
| 2026-04-18 11:45 | -1.26324 | 116.89994 | 21 ft | 5 kts | 289° |
| 2026-04-18 11:45 | -1.26299 | 116.89976 | 23 ft | 5 kts | 334° |
| 2026-04-18 11:45 | -1.26274 | 116.89966 | 21 ft | 2 kts | 338° |
| 2026-04-18 11:46 | -1.26265 | 116.89962 | 21 ft | 0 kts | 338° |